createdAt,value
2023-09-29T00:00:28.132Z,12.60
2023-09-29T00:03:20.349Z,12.40
2023-09-29T00:05:52.226Z,13.10
2023-09-29T00:08:24.153Z,12.80
2023-09-29T00:10:56.179Z,12.90
2023-09-29T00:13:27.875Z,12.50
2023-09-29T00:15:59.536Z,12.00
2023-09-29T00:18:33.103Z,11.80
2023-09-29T00:21:04.871Z,11.00
2023-09-29T00:23:37.278Z,11.90
2023-09-29T00:26:09.028Z,12.30
2023-09-29T00:28:40.931Z,12.20
2023-09-29T00:31:12.623Z,13.00
2023-09-29T00:33:44.275Z,12.30
2023-09-29T00:36:16.200Z,12.50
2023-09-29T00:38:48.221Z,12.50
2023-09-29T00:41:20.053Z,12.20
2023-09-29T00:43:52.237Z,12.80
2023-09-29T00:46:26.412Z,12.60
2023-09-29T00:48:58.118Z,12.30
2023-09-29T00:51:30.491Z,12.80
2023-09-29T00:54:02.826Z,12.60
2023-09-29T00:56:34.959Z,11.40
2023-09-29T00:59:10.761Z,12.00
2023-09-29T01:01:42.847Z,12.10
2023-09-29T01:04:14.562Z,12.60
2023-09-29T01:06:46.910Z,12.80
2023-09-29T01:09:18.560Z,13.40
2023-09-29T01:11:50.531Z,12.60
2023-09-29T01:14:22.339Z,12.50
2023-09-29T01:16:54.142Z,12.20
2023-09-29T01:19:27.150Z,12.40
2023-09-29T01:21:59.025Z,12.10
2023-09-29T01:24:30.862Z,12.60
2023-09-29T01:27:02.448Z,12.70
2023-09-29T01:29:34.244Z,12.30
2023-09-29T01:32:06.240Z,12.40
2023-09-29T01:34:38.077Z,11.80
2023-09-29T01:37:14.653Z,12.80
2023-09-29T01:39:46.386Z,12.70
2023-09-29T01:42:18.277Z,12.50
2023-09-29T01:44:50.299Z,12.50
2023-09-29T01:47:23.181Z,12.40
2023-09-29T01:49:54.851Z,11.50
2023-09-29T01:52:26.856Z,12.50
2023-09-29T01:54:58.416Z,12.00
2023-09-29T01:57:30.133Z,12.20
2023-09-29T02:00:02.005Z,13.40
2023-09-29T02:02:45.872Z,11.60
2023-09-29T02:05:18.805Z,13.00
2023-09-29T02:07:52.465Z,12.30
2023-09-29T02:10:25.748Z,12.60
2023-09-29T02:12:59.514Z,13.10
2023-09-29T02:15:32.033Z,13.20
2023-09-29T02:18:05.203Z,12.40
2023-09-29T02:20:39.639Z,12.70
2023-09-29T02:23:11.346Z,11.80
2023-09-29T02:25:44.364Z,11.70
2023-09-29T02:28:16.192Z,12.10
2023-09-29T02:30:47.820Z,12.90
2023-09-29T02:33:19.600Z,12.50
2023-09-29T02:35:52.602Z,11.70
2023-09-29T02:38:24.632Z,11.60
2023-09-29T02:40:56.282Z,12.40
2023-09-29T02:43:30.669Z,11.80
2023-09-29T02:46:02.349Z,12.20
2023-09-29T02:48:34.994Z,12.10
2023-09-29T02:51:14.840Z,12.40
2023-09-29T02:53:50.186Z,11.50
2023-09-29T02:56:22.188Z,12.60
2023-09-29T02:58:55.950Z,12.00
2023-09-29T03:01:27.858Z,12.60
2023-09-29T03:03:59.974Z,12.30
2023-09-29T03:06:33.439Z,11.80
2023-09-29T03:09:05.440Z,12.50
2023-09-29T03:11:37.289Z,12.70
2023-09-29T03:14:09.793Z,12.80
2023-09-29T03:16:41.414Z,12.90
2023-09-29T03:19:13.106Z,12.20
2023-09-29T03:21:44.812Z,12.30
2023-09-29T03:24:17.292Z,12.80
2023-09-29T03:29:22.463Z,11.40
2023-09-29T03:31:56.000Z,11.50
2023-09-29T03:34:27.655Z,11.60
2023-09-29T03:36:59.398Z,11.90
2023-09-29T03:39:30.973Z,11.50
2023-09-29T03:44:33.006Z,11.50
2023-09-29T03:47:04.920Z,11.90
2023-09-29T03:49:36.693Z,11.60
2023-09-29T03:52:09.877Z,11.40
2023-09-29T03:54:41.645Z,11.70
2023-09-29T03:57:13.510Z,11.70
2023-09-29T03:59:45.491Z,11.80
2023-09-29T04:02:18.814Z,12.70
2023-09-29T04:04:50.449Z,11.60
2023-09-29T04:07:22.143Z,12.20
2023-09-29T04:12:23.966Z,11.20
2023-09-29T04:17:25.865Z,12.00
2023-09-29T04:22:28.335Z,11.80
2023-09-29T04:27:30.834Z,10.70
2023-09-29T04:30:03.597Z,10.70
2023-09-29T04:32:35.397Z,11.70
2023-09-29T04:35:08.703Z,11.30
2023-09-29T04:37:41.253Z,10.90
2023-09-29T04:40:14.551Z,11.90
2023-09-29T04:42:46.467Z,11.30
2023-09-29T04:45:18.448Z,12.00
2023-09-29T04:47:50.615Z,12.70
2023-09-29T04:50:22.499Z,12.90
2023-09-29T04:52:54.510Z,12.50
2023-09-29T04:55:28.349Z,11.90
2023-09-29T04:58:00.626Z,11.80
2023-09-29T05:00:33.365Z,12.50
2023-09-29T05:03:07.917Z,11.70
2023-09-29T05:05:40.276Z,12.10
2023-09-29T05:08:12.016Z,12.70
2023-09-29T05:10:45.160Z,12.10
2023-09-29T05:13:17.017Z,12.00
2023-09-29T05:15:49.593Z,12.10
2023-09-29T05:18:21.514Z,12.30
2023-09-29T05:20:53.533Z,11.80
2023-09-29T05:23:25.118Z,12.10
2023-09-29T05:28:26.970Z,11.50
2023-09-29T05:30:58.905Z,11.30
2023-09-29T05:33:30.685Z,12.00
2023-09-29T05:36:02.803Z,11.70
2023-09-29T05:38:34.789Z,12.00
2023-09-29T05:41:06.402Z,12.40
2023-09-29T05:46:08.219Z,11.00
2023-09-29T05:48:41.321Z,11.70
2023-09-29T05:51:13.061Z,11.80
2023-09-29T05:53:45.174Z,12.40
2023-09-29T05:56:17.078Z,11.90
2023-09-29T05:58:48.674Z,11.90
2023-09-29T06:03:51.530Z,11.40
2023-09-29T06:06:24.222Z,12.00
2023-09-29T06:08:56.060Z,11.60
2023-09-29T06:11:27.746Z,12.20
2023-09-29T06:13:59.852Z,12.30
2023-09-29T06:16:31.581Z,12.20
2023-09-29T06:19:03.717Z,12.00
2023-09-29T06:21:36.632Z,12.60
2023-09-29T06:24:10.339Z,11.70
2023-09-29T06:26:42.000Z,11.80
2023-09-29T06:29:13.786Z,11.60
2023-09-29T06:34:16.347Z,11.20
2023-09-29T06:36:49.330Z,11.40
2023-09-29T06:39:20.962Z,11.60
2023-09-29T06:41:52.777Z,11.30
2023-09-29T06:44:24.865Z,10.80
2023-09-29T06:46:56.562Z,11.20
2023-09-29T06:49:28.657Z,11.70
2023-09-29T06:52:00.288Z,11.10
2023-09-29T06:54:32.218Z,11.30
2023-09-29T06:57:03.988Z,11.20
2023-09-29T06:59:35.705Z,11.00
2023-09-29T07:02:07.747Z,11.70
2023-09-29T07:04:39.589Z,12.20
2023-09-29T07:07:11.335Z,11.40
2023-09-29T07:09:43.180Z,12.30
2023-09-29T07:12:14.905Z,11.40
2023-09-29T07:14:46.838Z,11.70
2023-09-29T07:17:18.620Z,10.70
2023-09-29T07:19:50.383Z,10.90
2023-09-29T07:22:22.335Z,11.70
2023-09-29T07:24:58.819Z,12.10
2023-09-29T07:27:31.098Z,12.30
2023-09-29T07:30:02.745Z,11.60
2023-09-29T07:32:34.452Z,11.80
2023-09-29T07:35:08.634Z,12.30
2023-09-29T07:37:40.392Z,11.10
2023-09-29T07:40:14.484Z,12.00
2023-09-29T07:42:46.078Z,11.30
2023-09-29T07:45:18.828Z,11.50
2023-09-29T07:47:50.584Z,12.00
2023-09-29T07:50:22.429Z,10.70
2023-09-29T07:52:54.725Z,11.70
2023-09-29T07:55:27.000Z,12.10
2023-09-29T07:57:58.900Z,12.30
2023-09-29T08:00:30.834Z,11.30
2023-09-29T08:03:02.559Z,11.50
2023-09-29T08:05:34.320Z,11.60
2023-09-29T08:08:07.596Z,11.30
2023-09-29T08:10:39.579Z,12.50
2023-09-29T08:13:11.208Z,11.20
2023-09-29T08:15:43.854Z,11.40
2023-09-29T08:18:18.569Z,11.50
2023-09-29T08:20:55.176Z,12.00
2023-09-29T08:23:31.508Z,10.40
2023-09-29T08:26:04.303Z,11.10
2023-09-29T08:28:35.895Z,11.20
2023-09-29T08:31:16.964Z,10.80
2023-09-29T08:33:51.537Z,10.20
2023-09-29T08:36:23.722Z,9.50
2023-09-29T08:38:55.909Z,9.30
2023-09-29T08:41:30.344Z,10.40
2023-09-29T08:44:07.660Z,10.70
2023-09-29T08:46:44.348Z,9.70
2023-09-29T08:49:18.988Z,10.10
2023-09-29T08:51:51.635Z,9.90
2023-09-29T08:54:25.788Z,10.00
2023-09-29T08:56:59.877Z,9.80
2023-09-29T08:59:32.467Z,9.00
2023-09-29T09:02:04.321Z,9.60
2023-09-29T09:04:36.275Z,10.10
2023-09-29T09:07:07.987Z,9.80
2023-09-29T09:09:39.586Z,9.30
2023-09-29T09:12:11.309Z,9.90
2023-09-29T09:14:45.907Z,9.90
2023-09-29T09:17:17.562Z,9.80
2023-09-29T09:19:52.597Z,9.80
2023-09-29T09:22:43.174Z,8.80
2023-09-29T09:25:18.402Z,8.50
2023-09-29T09:27:53.816Z,7.70
2023-09-29T09:30:26.431Z,8.10
2023-09-29T09:32:58.694Z,7.70
2023-09-29T09:35:31.519Z,7.10
2023-09-29T09:38:04.168Z,7.50
2023-09-29T09:40:36.203Z,7.20
2023-09-29T09:43:10.207Z,6.70
2023-09-29T09:45:45.805Z,6.30
2023-09-29T09:48:22.285Z,7.20
2023-09-29T09:50:58.879Z,7.10
2023-09-29T09:53:32.972Z,6.50
2023-09-29T09:56:16.169Z,7.00
2023-09-29T09:58:50.163Z,7.40
2023-09-29T10:01:23.393Z,6.30
2023-09-29T10:03:58.139Z,6.20
2023-09-29T10:06:31.368Z,6.40
2023-09-29T10:09:08.962Z,7.30
2023-09-29T10:11:43.979Z,5.90
2023-09-29T10:14:16.166Z,6.40
2023-09-29T10:16:47.976Z,6.30
2023-09-29T10:19:20.059Z,7.60
2023-09-29T10:21:51.876Z,6.60
2023-09-29T10:24:30.636Z,6.60
2023-09-29T10:27:05.798Z,6.50
2023-09-29T10:29:39.888Z,5.40
2023-09-29T10:32:16.207Z,6.40
2023-09-29T10:34:49.651Z,6.50
2023-09-29T10:37:25.661Z,6.90
2023-09-29T10:39:57.374Z,6.20
2023-09-29T10:42:35.374Z,5.80
2023-09-29T10:45:08.737Z,6.70
2023-09-29T10:47:40.426Z,6.00
2023-09-29T10:50:13.832Z,6.70
2023-09-29T10:52:46.707Z,6.10
2023-09-29T10:55:18.724Z,6.60
2023-09-29T10:57:51.158Z,6.00
2023-09-29T11:00:23.345Z,6.10
2023-09-29T11:02:55.374Z,5.60
2023-09-29T11:05:27.861Z,5.80
2023-09-29T11:08:00.125Z,5.70
2023-09-29T11:10:32.262Z,5.90
2023-09-29T11:13:04.035Z,5.50
2023-09-29T11:15:41.079Z,5.20
2023-09-29T11:18:12.757Z,5.60
2023-09-29T11:20:54.950Z,5.50
2023-09-29T11:23:26.758Z,6.30
2023-09-29T11:26:00.997Z,5.50
2023-09-29T11:28:32.723Z,5.40
2023-09-29T11:31:04.409Z,6.00
2023-09-29T11:33:36.227Z,5.30
2023-09-29T11:36:16.726Z,5.40
2023-09-29T11:38:48.725Z,5.40
2023-09-29T11:41:22.510Z,5.50
2023-09-29T11:43:54.383Z,6.20
2023-09-29T11:46:27.172Z,5.80
2023-09-29T11:48:58.800Z,6.30
2023-09-29T11:51:30.468Z,6.10
2023-09-29T11:54:02.120Z,6.90
2023-09-29T11:56:33.815Z,5.80
2023-09-29T11:59:05.470Z,6.00
2023-09-29T12:01:37.255Z,6.00
2023-09-29T12:04:09.265Z,6.30
2023-09-29T12:06:40.937Z,5.90
2023-09-29T12:09:12.917Z,6.40
2023-09-29T12:11:44.724Z,6.10
2023-09-29T12:14:16.409Z,6.40
2023-09-29T12:16:48.043Z,6.00
2023-09-29T12:19:21.719Z,6.00
2023-09-29T12:21:53.326Z,6.10
2023-09-29T12:24:25.031Z,5.60
2023-09-29T12:26:56.853Z,5.70
2023-09-29T12:29:30.523Z,6.60
2023-09-29T12:32:02.505Z,6.00
2023-09-29T12:34:36.037Z,5.80
2023-09-29T12:37:09.224Z,6.40
2023-09-29T12:39:41.563Z,5.80
2023-09-29T12:42:13.244Z,5.80
2023-09-29T12:44:47.840Z,5.60
2023-09-29T12:47:19.870Z,5.80
2023-09-29T12:49:51.793Z,5.90
2023-09-29T12:52:23.494Z,6.10
2023-09-29T12:54:58.037Z,5.90
2023-09-29T12:57:29.794Z,6.30
2023-09-29T13:00:01.513Z,5.90
2023-09-29T13:02:33.981Z,6.00
2023-09-29T13:05:07.849Z,6.80
2023-09-29T13:07:39.537Z,5.90
2023-09-29T13:10:12.830Z,5.80
2023-09-29T13:12:47.499Z,5.70
2023-09-29T13:15:19.507Z,5.80
2023-09-29T13:17:52.744Z,5.80
2023-09-29T13:20:24.572Z,6.00
2023-09-29T13:22:56.786Z,5.20
2023-09-29T13:25:29.700Z,6.00
2023-09-29T13:28:01.701Z,6.00
2023-09-29T13:30:43.679Z,5.80
2023-09-29T13:33:27.903Z,5.60
2023-09-29T13:35:59.998Z,6.10
2023-09-29T13:38:31.645Z,6.30
2023-09-29T13:41:03.630Z,5.80
2023-09-29T13:43:35.464Z,5.70
2023-09-29T13:46:09.388Z,5.70
2023-09-29T13:48:41.386Z,5.70
2023-09-29T13:51:13.178Z,5.70
2023-09-29T13:53:45.124Z,5.80
2023-09-29T13:56:17.058Z,5.90
2023-09-29T13:58:48.769Z,5.60
2023-09-29T14:01:21.078Z,5.80
2023-09-29T14:03:57.568Z,5.60
2023-09-29T14:06:30.271Z,6.00
2023-09-29T14:09:15.162Z,5.90
2023-09-29T14:11:50.992Z,6.00
2023-09-29T14:14:23.272Z,6.00
2023-09-29T14:16:54.925Z,5.50
2023-09-29T14:19:26.968Z,6.00
2023-09-29T14:21:58.808Z,6.00
2023-09-29T14:24:32.445Z,5.80
2023-09-29T14:27:04.327Z,5.90
2023-09-29T14:29:36.277Z,6.20
2023-09-29T14:32:08.041Z,5.60
2023-09-29T14:34:40.325Z,5.70
2023-09-29T14:37:12.015Z,5.90
2023-09-29T14:39:43.759Z,6.60
2023-09-29T14:42:15.416Z,6.30
2023-09-29T14:44:48.382Z,6.50
2023-09-29T14:47:20.806Z,6.10
2023-09-29T14:49:52.555Z,6.40
2023-09-29T14:52:24.825Z,5.90
2023-09-29T14:54:57.771Z,6.00
2023-09-29T14:57:29.556Z,6.30
2023-09-29T15:00:02.325Z,6.60
2023-09-29T15:02:34.238Z,6.10
2023-09-29T15:05:06.982Z,6.50
2023-09-29T15:07:38.596Z,6.20
2023-09-29T15:10:11.518Z,5.80
2023-09-29T15:12:43.125Z,6.70
2023-09-29T15:15:15.406Z,7.00
2023-09-29T15:17:47.247Z,6.30
2023-09-29T15:20:19.367Z,6.20
2023-09-29T15:22:50.947Z,6.70
2023-09-29T15:25:24.622Z,6.30
2023-09-29T15:30:43.283Z,6.70
2023-09-29T15:33:15.991Z,6.90
2023-09-29T15:35:56.543Z,5.70
2023-09-29T15:38:28.588Z,7.20
2023-09-29T15:41:00.295Z,6.40
2023-09-29T15:43:32.365Z,6.90
2023-09-29T15:46:11.669Z,7.10
2023-09-29T15:48:45.349Z,7.00
2023-09-29T15:51:17.279Z,6.80
2023-09-29T15:53:55.207Z,7.60
2023-09-29T15:56:27.336Z,7.20
2023-09-29T15:58:58.916Z,6.50
2023-09-29T16:01:30.589Z,7.50
2023-09-29T16:04:03.357Z,7.30
2023-09-29T16:06:35.379Z,7.30
2023-09-29T16:09:07.603Z,7.10
2023-09-29T16:11:39.829Z,7.40
2023-09-29T16:14:12.063Z,7.50
2023-09-29T16:16:44.303Z,7.70
2023-09-29T16:19:15.926Z,7.70
2023-09-29T16:21:47.632Z,7.60
2023-09-29T16:24:19.276Z,7.90
2023-09-29T16:26:50.977Z,7.90
2023-09-29T16:29:22.667Z,7.20
2023-09-29T16:31:54.624Z,7.30
2023-09-29T16:34:26.541Z,7.90
2023-09-29T16:36:58.238Z,8.00
2023-09-29T16:39:31.143Z,7.30
2023-09-29T16:42:02.918Z,7.80
2023-09-29T16:44:35.645Z,7.50
2023-09-29T16:47:07.273Z,7.60
2023-09-29T16:49:38.820Z,7.90
2023-09-29T16:52:10.427Z,7.60
2023-09-29T16:54:44.148Z,8.20
2023-09-29T16:57:16.649Z,7.80
2023-09-29T16:59:48.478Z,8.30
2023-09-29T17:02:20.239Z,8.00
2023-09-29T17:04:52.097Z,8.20
2023-09-29T17:07:23.817Z,8.50
2023-09-29T17:09:55.534Z,7.70
2023-09-29T17:12:28.263Z,8.70
2023-09-29T17:15:01.194Z,8.40
2023-09-29T17:17:33.843Z,8.40
2023-09-29T17:20:06.826Z,8.30
2023-09-29T17:22:38.386Z,9.00
2023-09-29T17:25:12.204Z,9.40
2023-09-29T17:27:43.836Z,9.00
2023-09-29T17:30:17.078Z,8.90
2023-09-29T17:32:48.736Z,8.10
2023-09-29T17:35:20.496Z,8.60
2023-09-29T17:37:54.211Z,9.00
2023-09-29T17:40:26.026Z,8.80
2023-09-29T17:42:57.676Z,8.80
2023-09-29T17:45:29.907Z,9.50
2023-09-29T17:48:01.606Z,9.60
2023-09-29T17:50:37.481Z,10.20
2023-09-29T17:53:09.397Z,9.90
2023-09-29T17:55:41.253Z,9.90
2023-09-29T17:58:15.326Z,10.20
2023-09-29T18:00:47.147Z,9.70
2023-09-29T18:03:19.293Z,9.90
2023-09-29T18:05:50.961Z,9.90
2023-09-29T18:08:22.556Z,10.00
2023-09-29T18:10:54.350Z,10.30
2023-09-29T18:13:29.483Z,10.80
2023-09-29T18:16:06.564Z,10.30
2023-09-29T18:18:38.424Z,9.80
2023-09-29T18:21:10.783Z,9.90
2023-09-29T18:23:42.863Z,10.30
2023-09-29T18:26:16.979Z,10.70
2023-09-29T18:28:48.933Z,11.00
2023-09-29T18:31:20.823Z,10.60
2023-09-29T18:33:52.510Z,11.00
2023-09-29T18:36:29.372Z,11.10
2023-09-29T18:39:01.295Z,11.30
2023-09-29T18:41:35.390Z,11.40
2023-09-29T18:44:11.332Z,11.60
2023-09-29T18:46:45.284Z,11.00
2023-09-29T18:49:21.321Z,11.90
2023-09-29T18:52:00.508Z,11.60
2023-09-29T18:54:34.158Z,11.90
2023-09-29T18:57:06.123Z,12.00
2023-09-29T18:59:45.832Z,11.30
2023-09-29T19:02:24.519Z,10.70
2023-09-29T19:04:56.156Z,10.90
2023-09-29T19:07:32.782Z,11.70
2023-09-29T19:10:10.687Z,11.30
2023-09-29T19:12:48.910Z,11.70
2023-09-29T19:15:26.600Z,11.90
2023-09-29T19:18:04.657Z,12.00
2023-09-29T19:20:43.315Z,11.60
2023-09-29T19:23:15.686Z,11.60
2023-09-29T19:25:47.511Z,12.60
2023-09-29T19:28:19.099Z,12.70
2023-09-29T19:30:50.920Z,11.90
2023-09-29T19:33:23.238Z,12.20
2023-09-29T19:35:57.340Z,12.10
2023-09-29T19:38:32.697Z,11.90
2023-09-29T19:41:04.326Z,12.50
2023-09-29T19:43:36.119Z,12.00
2023-09-29T19:46:08.127Z,13.10
2023-09-29T19:48:41.664Z,12.70
2023-09-29T19:51:14.974Z,12.10
2023-09-29T19:53:49.871Z,13.50
2023-09-29T19:56:22.559Z,11.90
2023-09-29T19:58:58.795Z,13.10
2023-09-29T20:01:31.547Z,12.90
2023-09-29T20:04:06.208Z,13.10
2023-09-29T20:06:38.237Z,12.80
2023-09-29T20:09:10.113Z,12.30
2023-09-29T20:11:41.747Z,12.70
2023-09-29T20:14:14.649Z,13.60
2023-09-29T20:16:46.715Z,13.20
2023-09-29T20:19:18.478Z,13.20
2023-09-29T20:21:50.317Z,13.10
2023-09-29T20:24:24.865Z,13.60
2023-09-29T20:26:57.321Z,13.80
2023-09-29T20:29:29.196Z,13.90
2023-09-29T20:32:00.938Z,13.80
2023-09-29T20:34:33.806Z,13.80
2023-09-29T20:37:08.306Z,14.10
2023-09-29T20:39:39.958Z,14.80
2023-09-29T20:42:13.556Z,15.30
2023-09-29T20:44:46.752Z,14.70
2023-09-29T20:47:18.705Z,15.30
2023-09-29T20:49:50.355Z,16.20
2023-09-29T20:52:22.019Z,16.20
2023-09-29T20:54:54.045Z,14.90
2023-09-29T20:57:27.300Z,16.00
2023-09-29T20:59:59.317Z,15.40
2023-09-29T21:02:30.989Z,15.80
2023-09-29T21:05:02.685Z,16.20
2023-09-29T21:07:34.311Z,16.50
2023-09-29T21:10:09.445Z,15.40
2023-09-29T21:12:41.054Z,16.00
2023-09-29T21:15:14.454Z,15.20
2023-09-29T21:17:46.204Z,15.60
2023-09-29T21:20:17.807Z,16.40
2023-09-29T21:22:53.990Z,15.60
2023-09-29T21:25:26.099Z,16.60
2023-09-29T21:27:57.886Z,16.00
2023-09-29T21:30:30.549Z,16.20
2023-09-29T21:33:02.276Z,16.00
2023-09-29T21:35:35.497Z,15.50
2023-09-29T21:38:07.351Z,15.60
2023-09-29T21:40:39.192Z,16.50
2023-09-29T21:43:11.053Z,16.80
2023-09-29T21:45:42.687Z,16.00
2023-09-29T21:48:14.495Z,16.70
2023-09-29T21:50:46.257Z,16.30
2023-09-29T21:53:17.817Z,15.60
2023-09-29T21:55:49.457Z,16.50
2023-09-29T21:58:22.559Z,15.50
2023-09-29T22:00:54.210Z,17.40
2023-09-29T22:03:27.407Z,16.20
2023-09-29T22:05:59.171Z,15.70
2023-09-29T22:08:30.907Z,16.00
2023-09-29T22:11:02.538Z,16.30
2023-09-29T22:13:34.231Z,16.30
2023-09-29T22:16:06.351Z,16.90
2023-09-29T22:18:38.090Z,16.10
2023-09-29T22:21:09.867Z,16.80
2023-09-29T22:23:41.910Z,17.70
2023-09-29T22:26:22.884Z,17.40
2023-09-29T22:28:54.598Z,17.60
2023-09-29T22:31:26.419Z,17.20
2023-09-29T22:33:58.768Z,16.90
2023-09-29T22:36:31.045Z,17.20
2023-09-29T22:39:02.889Z,17.10
2023-09-29T22:41:34.862Z,17.20
2023-09-29T22:44:07.130Z,17.50
2023-09-29T22:46:39.129Z,16.90
2023-09-29T22:49:12.403Z,16.60
2023-09-29T22:51:44.497Z,17.40
2023-09-29T22:54:16.570Z,17.60
2023-09-29T22:56:48.254Z,18.30
2023-09-29T22:59:21.397Z,17.80
2023-09-29T23:01:53.860Z,18.40
2023-09-29T23:04:26.160Z,17.30
2023-09-29T23:06:58.262Z,18.90
2023-09-29T23:09:29.964Z,18.50
2023-09-29T23:12:04.219Z,18.00
2023-09-29T23:14:37.221Z,19.10
2023-09-29T23:17:09.972Z,19.40
2023-09-29T23:19:41.715Z,17.50
2023-09-29T23:22:13.685Z,18.30
2023-09-29T23:24:45.401Z,18.90
2023-09-29T23:27:17.161Z,20.20
2023-09-29T23:29:49.194Z,19.90
2023-09-29T23:32:21.618Z,19.60
2023-09-29T23:34:53.477Z,18.30
2023-09-29T23:37:25.136Z,18.60
2023-09-29T23:39:56.829Z,19.50
2023-09-29T23:42:28.552Z,18.90
2023-09-29T23:45:01.140Z,18.50
2023-09-29T23:47:33.019Z,19.10
2023-09-29T23:50:06.213Z,18.40
2023-09-29T23:52:37.908Z,19.40
2023-09-29T23:55:12.567Z,18.10
2023-09-29T23:57:44.923Z,18.20
